Cedar Park's Hourly Summary for Wednesday, July 11, 2018
Hour Temp
(f)
RH
(%)
Solar Rad.
(MJ/m2)
Rainfall
(in)
Wind
(mph)
7/11/2018 12:00 AM 78 81 0 0 0.95
7/11/2018 1:00 AM 78 85 0 0 0.95
7/11/2018 2:00 AM 77 88 0 0 0.58
7/11/2018 3:00 AM 76 91 0 0 0.58
7/11/2018 4:00 AM 75 91 0 0 0.25
7/11/2018 5:00 AM 74 95 0 0 0.03
7/11/2018 6:00 AM 73 97 0.01 0 0
7/11/2018 7:00 AM 73 97 0.3 0 0.01
7/11/2018 8:00 AM 78 90 0.94 0 0.68
7/11/2018 9:00 AM 81 78 1.62 0 0.99
7/11/2018 10:00 AM 84 67 2.28 0 1.77
7/11/2018 11:00 AM 86 60 2.78 0 2.19
7/11/2018 12:00 PM 87 55 3.11 0 2.27
7/11/2018 1:00 PM 89 47 3.31 0 3.63
7/11/2018 2:00 PM 90 42 3.31 0 4.08
7/11/2018 3:00 PM 91 42 3.2 0 4.08
7/11/2018 4:00 PM 91 40 2.38 0 4.03
7/11/2018 5:00 PM 91 43 2.25 0 4.53
7/11/2018 6:00 PM 90 43 1.76 0 4.66
7/11/2018 7:00 PM 90 45 0.55 0 4.66
7/11/2018 8:00 PM 89 49 0.34 0 3.71
7/11/2018 9:00 PM 85 65 0.06 0 0.42
7/11/2018 10:00 PM 80 65 0 0 0.31
7/11/2018 11:00 PM 80 69 0 0 0.31
Data Summary 82 67 28.20 0.00 1.90